createdAt,value
2023-03-02T00:01:48.901Z,101927.66
2023-03-02T00:04:21.314Z,101936.31
2023-03-02T00:06:49.106Z,101929.38
2023-03-02T00:09:17.001Z,101941.06
2023-03-02T00:11:45.369Z,101935.59
2023-03-02T00:14:12.081Z,101937.53
2023-03-02T00:16:40.199Z,101937.38
2023-03-02T00:19:06.978Z,101928.09
2023-03-02T00:21:33.679Z,101941.41
2023-03-02T00:24:00.444Z,101929.28
2023-03-02T00:26:27.128Z,101931.66
2023-03-02T00:28:53.954Z,101927.75
2023-03-02T00:31:21.000Z,101924.91
2023-03-02T00:33:48.758Z,101920.69
2023-03-02T00:36:19.153Z,101923.31
2023-03-02T00:38:45.964Z,101921.97
2023-03-02T00:41:13.917Z,101918.97
2023-03-02T00:43:40.957Z,101925.72
2023-03-02T00:46:11.726Z,101930.28
2023-03-02T00:48:38.515Z,101932.16
2023-03-02T00:51:07.091Z,101929.94
2023-03-02T00:53:35.129Z,101927.28
2023-03-02T00:56:03.125Z,101924.81
2023-03-02T00:58:32.071Z,101918.88
2023-03-02T01:01:00.129Z,101922.63
2023-03-02T01:03:27.264Z,101921.44
2023-03-02T01:05:55.340Z,101929.59
2023-03-02T01:08:23.461Z,101919.00
2023-03-02T01:10:50.275Z,101919.56
2023-03-02T01:13:18.115Z,101917.19
2023-03-02T01:15:44.991Z,101905.53
2023-03-02T01:18:13.109Z,101904.56
2023-03-02T01:20:39.869Z,101898.63
2023-03-02T01:23:06.648Z,101912.19
2023-03-02T01:25:33.413Z,101899.44
2023-03-02T01:28:00.298Z,101892.31
2023-03-02T01:30:27.670Z,101895.00
2023-03-02T01:32:54.384Z,101906.09
2023-03-02T01:35:21.172Z,101895.03
2023-03-02T01:37:47.859Z,101890.50
2023-03-02T01:40:14.762Z,101888.00
2023-03-02T01:42:50.544Z,101884.19
2023-03-02T01:45:55.237Z,101885.25
2023-03-02T01:48:52.728Z,101881.16
2023-03-02T01:51:29.049Z,101872.78
2023-03-02T01:54:06.763Z,101869.13
2023-03-02T01:56:36.573Z,101875.63
2023-03-02T01:59:09.744Z,101866.72
2023-03-02T02:01:38.591Z,101869.59
2023-03-02T02:04:06.472Z,101869.63
2023-03-02T02:06:48.171Z,101865.03
2023-03-02T02:09:17.503Z,101860.16
2023-03-02T02:11:44.371Z,101859.03
2023-03-02T02:14:11.342Z,101854.38
2023-03-02T02:16:38.808Z,101849.09
2023-03-02T02:19:16.096Z,101846.97
2023-03-02T02:21:42.865Z,101846.16
2023-03-02T02:24:28.712Z,101836.19
2023-03-02T02:26:56.401Z,101831.91
2023-03-02T02:29:38.637Z,101830.44
2023-03-02T02:32:14.645Z,101827.34
2023-03-02T02:34:46.511Z,101823.75
2023-03-02T02:37:22.844Z,101827.50
2023-03-02T02:39:50.457Z,101819.91
2023-03-02T02:42:23.989Z,101826.19
2023-03-02T02:44:51.946Z,101825.28
2023-03-02T02:47:20.242Z,101828.00
2023-03-02T02:49:49.073Z,101815.66
2023-03-02T02:52:18.355Z,101820.66
2023-03-02T02:54:49.322Z,101823.22
2023-03-02T02:57:17.899Z,101829.34
2023-03-02T02:59:49.565Z,101829.69
2023-03-02T03:02:26.116Z,101825.66
2023-03-02T03:05:02.505Z,101827.66
2023-03-02T03:07:32.283Z,101822.75
2023-03-02T03:10:19.125Z,101822.41
2023-03-02T03:12:46.623Z,101824.03
2023-03-02T03:15:14.278Z,101819.41
2023-03-02T03:17:41.038Z,101818.03
2023-03-02T03:20:09.363Z,101818.28
2023-03-02T03:22:40.811Z,101815.44
2023-03-02T03:25:10.111Z,101820.44
2023-03-02T03:27:36.793Z,101821.28
2023-03-02T03:30:05.522Z,101825.63
2023-03-02T03:32:35.487Z,101818.69
2023-03-02T03:35:03.654Z,101819.06
2023-03-02T03:37:32.579Z,101826.03
2023-03-02T03:39:59.887Z,101818.41
2023-03-02T03:42:27.035Z,101817.69
2023-03-02T03:44:55.188Z,101816.13
2023-03-02T03:47:22.483Z,101814.44
2023-03-02T03:49:50.569Z,101822.38
2023-03-02T03:52:17.633Z,101815.94
2023-03-02T03:54:44.527Z,101822.72
2023-03-02T03:57:12.415Z,101818.97
2023-03-02T03:59:39.880Z,101821.50
2023-03-02T04:02:06.879Z,101817.13
2023-03-02T04:04:39.963Z,101824.88
2023-03-02T04:07:11.545Z,101827.59
2023-03-02T04:09:39.290Z,101820.59
2023-03-02T04:12:08.935Z,101820.09
2023-03-02T04:14:36.681Z,101829.16
2023-03-02T04:17:05.472Z,101825.66
2023-03-02T04:19:35.801Z,101828.75
2023-03-02T04:22:04.229Z,101834.63
2023-03-02T04:24:32.431Z,101834.81
2023-03-02T04:27:02.025Z,101835.72
2023-03-02T04:29:29.657Z,101837.34
2023-03-02T04:31:56.787Z,101839.16
2023-03-02T04:34:26.467Z,101836.91
2023-03-02T04:36:53.762Z,101838.81
2023-03-02T04:39:20.986Z,101840.03
2023-03-02T04:41:51.279Z,101840.91
2023-03-02T04:44:18.790Z,101836.69
2023-03-02T04:46:46.591Z,101840.22
2023-03-02T04:49:15.200Z,101841.94
2023-03-02T04:51:44.967Z,101834.22
2023-03-02T04:54:17.008Z,101850.41
2023-03-02T04:56:43.837Z,101839.81
2023-03-02T04:59:10.630Z,101844.06
2023-03-02T05:01:37.482Z,101842.53
2023-03-02T05:04:04.638Z,101838.94
2023-03-02T05:06:31.890Z,101837.50
2023-03-02T05:09:00.204Z,101840.47
2023-03-02T05:11:27.023Z,101835.41
2023-03-02T05:13:56.194Z,101840.72
2023-03-02T05:16:24.287Z,101835.81
2023-03-02T05:18:51.734Z,101842.41
2023-03-02T05:21:19.120Z,101839.09
2023-03-02T05:23:47.116Z,101835.78
2023-03-02T05:26:14.850Z,101843.06
2023-03-02T05:28:42.150Z,101841.66
2023-03-02T05:31:10.162Z,101845.97
2023-03-02T05:33:36.859Z,101857.09
2023-03-02T05:36:03.762Z,101846.97
2023-03-02T05:38:31.724Z,101854.31
2023-03-02T05:40:58.506Z,101851.34
2023-03-02T05:43:25.239Z,101846.41
2023-03-02T05:45:52.004Z,101859.28
2023-03-02T05:48:18.864Z,101849.91
2023-03-02T05:50:45.619Z,101859.34
2023-03-02T05:53:12.387Z,101854.06
2023-03-02T05:55:39.091Z,101862.59
2023-03-02T05:58:13.052Z,101859.34
2023-03-02T06:00:40.019Z,101862.50
2023-03-02T06:03:06.721Z,101852.78
2023-03-02T06:05:33.487Z,101860.72
2023-03-02T06:08:00.479Z,101863.59
2023-03-02T06:10:27.565Z,101862.22
2023-03-02T06:12:54.495Z,101866.56
2023-03-02T06:15:21.230Z,101871.94
2023-03-02T06:17:48.377Z,101867.72
2023-03-02T06:20:15.652Z,101860.38
2023-03-02T06:22:47.050Z,101859.28
2023-03-02T06:25:17.997Z,101865.84
2023-03-02T06:27:45.045Z,101869.50
2023-03-02T06:30:15.607Z,101874.13
2023-03-02T06:32:43.258Z,101872.03
2023-03-02T06:35:10.784Z,101860.81
2023-03-02T06:37:37.553Z,101862.81
2023-03-02T06:40:08.849Z,101863.59
2023-03-02T06:42:35.827Z,101851.47
2023-03-02T06:45:02.675Z,101864.13
2023-03-02T06:47:29.459Z,101871.38
2023-03-02T06:49:57.066Z,101871.38
2023-03-02T06:52:23.877Z,101877.88
2023-03-02T06:54:50.523Z,101871.28
2023-03-02T06:57:17.247Z,101868.94
2023-03-02T06:59:43.909Z,101867.38
2023-03-02T07:02:11.436Z,101881.53
2023-03-02T07:04:38.297Z,101871.63
2023-03-02T07:07:05.446Z,101866.34
2023-03-02T07:09:35.202Z,101865.66
2023-03-02T07:12:02.145Z,101866.75
2023-03-02T07:14:29.002Z,101869.44
2023-03-02T07:16:57.579Z,101864.38
2023-03-02T07:19:24.609Z,101875.34
2023-03-02T07:21:51.312Z,101873.28
2023-03-02T07:24:18.093Z,101873.47
2023-03-02T07:26:44.944Z,101871.13
2023-03-02T07:29:11.775Z,101867.91
2023-03-02T07:31:39.710Z,101872.81
2023-03-02T07:34:06.464Z,101874.75
2023-03-02T07:36:33.172Z,101880.44
2023-03-02T07:38:59.818Z,101876.75
2023-03-02T07:41:26.591Z,101883.63
2023-03-02T07:43:53.342Z,101888.69
2023-03-02T07:46:20.181Z,101884.84
2023-03-02T07:48:46.987Z,101877.28
2023-03-02T07:51:13.777Z,101880.72
2023-03-02T07:53:40.452Z,101876.31
2023-03-02T07:56:09.296Z,101884.84
2023-03-02T07:58:37.886Z,101895.22
2023-03-02T08:01:05.027Z,101887.78
2023-03-02T08:03:31.768Z,101889.81
2023-03-02T08:05:58.516Z,101887.91
2023-03-02T08:08:25.228Z,101886.94
2023-03-02T08:10:52.676Z,101881.66
2023-03-02T08:13:19.489Z,101883.50
2023-03-02T08:15:46.338Z,101875.91
2023-03-02T08:18:16.945Z,101871.63
2023-03-02T08:20:46.596Z,101865.84
2023-03-02T08:23:13.357Z,101873.03
2023-03-02T08:25:42.986Z,101867.06
2023-03-02T08:28:09.818Z,101869.25
2023-03-02T08:30:36.591Z,101877.44
2023-03-02T08:33:06.965Z,101866.84
2023-03-02T08:35:34.043Z,101879.25
2023-03-02T08:38:00.887Z,101871.25
2023-03-02T08:40:27.721Z,101864.94
2023-03-02T08:42:57.530Z,101867.66
2023-03-02T08:45:24.689Z,101870.00
2023-03-02T08:47:54.194Z,101866.72
2023-03-02T08:50:21.674Z,101860.19
2023-03-02T08:52:49.982Z,101859.63
2023-03-02T08:55:18.654Z,101860.16
2023-03-02T08:57:45.424Z,101864.31
2023-03-02T09:00:14.845Z,101856.81
2023-03-02T09:02:41.878Z,101849.34
2023-03-02T09:05:09.191Z,101850.16
2023-03-02T09:07:36.065Z,101857.69
2023-03-02T09:10:03.105Z,101864.41
2023-03-02T09:12:30.011Z,101849.88
2023-03-02T09:14:56.794Z,101855.19
2023-03-02T09:17:23.546Z,101850.78
2023-03-02T09:19:50.284Z,101852.56
2023-03-02T09:22:17.613Z,101853.91
2023-03-02T09:24:44.334Z,101840.97
2023-03-02T09:27:11.693Z,101853.38
2023-03-02T09:29:38.708Z,101841.47
2023-03-02T09:32:05.917Z,101844.75
2023-03-02T09:34:32.774Z,101858.25
2023-03-02T09:36:59.535Z,101851.44
2023-03-02T09:39:26.399Z,101845.22
2023-03-02T09:42:08.374Z,101849.59
2023-03-02T09:44:56.665Z,101842.56
2023-03-02T09:47:36.085Z,101845.78
2023-03-02T09:50:12.118Z,101839.09
2023-03-02T09:52:45.123Z,101838.78
2023-03-02T09:55:28.884Z,101841.47
2023-03-02T09:57:56.138Z,101841.78
2023-03-02T10:00:31.250Z,101836.38
2023-03-02T10:03:16.667Z,101832.06
2023-03-02T10:05:49.816Z,101838.53
2023-03-02T10:08:29.933Z,101840.44
2023-03-02T10:11:08.858Z,101835.53
2023-03-02T10:13:49.291Z,101832.22
2023-03-02T10:16:23.962Z,101838.25
2023-03-02T10:19:05.865Z,101833.88
2023-03-02T10:21:40.666Z,101836.34
2023-03-02T10:24:21.750Z,101829.31
2023-03-02T10:26:53.727Z,101827.44
2023-03-02T10:29:20.396Z,101831.00
2023-03-02T10:31:50.003Z,101820.16
2023-03-02T10:34:16.748Z,101835.03
2023-03-02T10:36:47.641Z,101823.44
2023-03-02T10:39:15.943Z,101831.00
2023-03-02T10:41:53.554Z,101824.25
2023-03-02T10:44:32.193Z,101826.94
2023-03-02T10:46:59.385Z,101826.91
2023-03-02T10:49:36.658Z,101829.09
2023-03-02T10:52:13.374Z,101827.50
2023-03-02T10:54:40.279Z,101822.88
2023-03-02T10:57:39.937Z,101828.56
2023-03-02T11:00:21.978Z,101826.16
2023-03-02T11:03:12.238Z,101818.81
2023-03-02T11:05:40.075Z,101813.66
2023-03-02T11:08:10.195Z,101812.50
2023-03-02T11:10:42.195Z,101801.16
2023-03-02T11:13:23.805Z,101800.22
2023-03-02T11:15:52.343Z,101806.59
2023-03-02T11:18:37.176Z,101802.38
2023-03-02T11:21:06.985Z,101805.81
2023-03-02T11:23:33.766Z,101798.03
2023-03-02T11:26:06.604Z,101807.59
2023-03-02T11:28:49.770Z,101804.41
2023-03-02T11:31:43.224Z,101806.66
2023-03-02T11:34:18.335Z,101810.16
2023-03-02T11:37:03.825Z,101799.41
2023-03-02T11:39:59.188Z,101804.28
2023-03-02T11:42:29.536Z,101794.53
2023-03-02T11:44:57.122Z,101808.91
2023-03-02T11:47:24.051Z,101795.63
2023-03-02T11:50:01.932Z,101798.06
2023-03-02T11:52:31.076Z,101790.91
2023-03-02T11:55:06.944Z,101788.47
2023-03-02T11:57:38.684Z,101788.06
2023-03-02T12:00:34.102Z,101784.09
2023-03-02T12:03:03.697Z,101793.88
2023-03-02T12:05:36.478Z,101794.28
2023-03-02T12:08:07.102Z,101788.06
2023-03-02T12:10:42.584Z,101784.16
2023-03-02T12:13:21.690Z,101778.25
2023-03-02T12:15:56.017Z,101771.66
2023-03-02T12:18:22.860Z,101777.47
2023-03-02T12:21:00.975Z,101777.47
2023-03-02T12:23:29.044Z,101771.16
2023-03-02T12:26:25.580Z,101762.69
2023-03-02T12:29:15.757Z,101772.91
2023-03-02T12:31:54.773Z,101762.38
2023-03-02T12:34:26.466Z,101762.91
2023-03-02T12:37:00.674Z,101759.47
2023-03-02T12:39:30.801Z,101760.13
2023-03-02T12:42:06.441Z,101760.06
2023-03-02T12:45:02.453Z,101760.16
2023-03-02T12:47:30.250Z,101758.22
2023-03-02T12:50:01.314Z,101745.63
2023-03-02T12:52:33.802Z,101744.53
2023-03-02T12:55:21.370Z,101744.69
2023-03-02T12:57:50.347Z,101730.63
2023-03-02T13:00:20.385Z,101734.88
2023-03-02T13:02:49.577Z,101732.78
2023-03-02T13:05:25.210Z,101736.34
2023-03-02T13:08:00.964Z,101739.09
2023-03-02T13:10:42.123Z,101725.50
2023-03-02T13:13:35.184Z,101719.53
2023-03-02T13:16:06.152Z,101731.47
2023-03-02T13:18:34.993Z,101719.75
2023-03-02T13:21:03.682Z,101724.41
2023-03-02T13:23:32.458Z,101719.63
2023-03-02T13:26:01.818Z,101716.84
2023-03-02T13:28:30.148Z,101711.09
2023-03-02T13:31:04.298Z,101717.09
2023-03-02T13:33:32.621Z,101713.13
2023-03-02T13:35:59.702Z,101705.53
2023-03-02T13:38:32.789Z,101700.41
2023-03-02T13:40:59.561Z,101707.56
2023-03-02T13:43:26.364Z,101696.72
2023-03-02T13:45:58.814Z,101709.47
2023-03-02T13:48:27.804Z,101706.19
2023-03-02T13:51:15.320Z,101700.25
2023-03-02T13:53:46.504Z,101706.03
2023-03-02T13:56:15.242Z,101704.34
2023-03-02T13:58:42.086Z,101704.28
2023-03-02T14:01:11.254Z,101690.91
2023-03-02T14:03:37.916Z,101689.53
2023-03-02T14:06:06.151Z,101703.63
2023-03-02T14:08:32.918Z,101689.63
2023-03-02T14:11:01.237Z,101690.06
2023-03-02T14:13:51.123Z,101690.34
2023-03-02T14:16:18.083Z,101685.09
2023-03-02T14:18:47.183Z,101683.34
2023-03-02T14:21:19.230Z,101675.78
2023-03-02T14:23:46.873Z,101681.50
2023-03-02T14:26:32.071Z,101680.66
2023-03-02T14:29:10.704Z,101682.72
2023-03-02T14:31:37.590Z,101673.81
2023-03-02T14:34:04.310Z,101678.56
2023-03-02T14:36:33.600Z,101674.56
2023-03-02T14:39:04.168Z,101680.06
2023-03-02T14:41:34.338Z,101667.91
2023-03-02T14:44:05.184Z,101672.78
2023-03-02T14:46:31.993Z,101666.38
2023-03-02T14:48:58.838Z,101664.03
2023-03-02T14:51:27.453Z,101666.84
2023-03-02T14:53:55.481Z,101676.66
2023-03-02T14:56:25.731Z,101670.34
2023-03-02T14:58:53.328Z,101659.00
2023-03-02T15:01:24.169Z,101664.88
2023-03-02T15:03:50.971Z,101649.88
2023-03-02T15:06:38.725Z,101650.06
2023-03-02T15:09:05.769Z,101653.88
2023-03-02T15:11:32.784Z,101642.38
2023-03-02T15:13:59.822Z,101644.41
2023-03-02T15:16:26.564Z,101647.13
2023-03-02T15:18:53.980Z,101624.09
2023-03-02T15:21:22.710Z,101642.63
2023-03-02T15:23:49.662Z,101643.41
2023-03-02T15:26:16.594Z,101637.88
2023-03-02T15:28:45.767Z,101641.81
2023-03-02T15:31:15.508Z,101634.63
2023-03-02T15:33:43.238Z,101641.88
2023-03-02T15:36:10.164Z,101647.56
2023-03-02T15:38:37.203Z,101644.00
2023-03-02T15:41:06.089Z,101655.69
2023-03-02T15:43:33.146Z,101652.97
2023-03-02T15:46:00.897Z,101635.66
2023-03-02T15:48:29.034Z,101641.22
2023-03-02T15:50:59.752Z,101626.53
2023-03-02T15:53:27.155Z,101632.72
2023-03-02T15:55:54.075Z,101631.63
2023-03-02T15:58:22.050Z,101636.03
2023-03-02T16:00:49.701Z,101639.47
2023-03-02T16:03:16.908Z,101645.03
2023-03-02T16:05:43.658Z,101635.97
2023-03-02T16:08:10.550Z,101642.50
2023-03-02T16:10:37.707Z,101646.81
2023-03-02T16:13:05.916Z,101643.44
2023-03-02T16:15:42.064Z,101643.41
2023-03-02T16:18:10.087Z,101652.13
2023-03-02T16:20:40.062Z,101647.59
2023-03-02T16:23:08.245Z,101658.94
2023-03-02T16:25:38.163Z,101664.78
2023-03-02T16:28:04.975Z,101660.66
2023-03-02T16:30:32.464Z,101672.59
2023-03-02T16:33:00.759Z,101675.78
2023-03-02T16:35:29.312Z,101660.03
2023-03-02T16:37:56.197Z,101673.84
2023-03-02T16:40:23.593Z,101686.81
2023-03-02T16:42:51.171Z,101687.81
2023-03-02T16:45:19.328Z,101684.50
2023-03-02T16:47:46.554Z,101687.50
2023-03-02T16:50:15.591Z,101697.91
2023-03-02T16:52:42.578Z,101692.94
2023-03-02T16:55:15.565Z,101705.94
2023-03-02T16:57:43.083Z,101710.34
2023-03-02T17:00:12.964Z,101712.00
2023-03-02T17:02:39.914Z,101706.72
2023-03-02T17:05:06.836Z,101712.34
2023-03-02T17:07:34.120Z,101704.63
2023-03-02T17:10:00.872Z,101708.50
2023-03-02T17:12:27.810Z,101717.09
2023-03-02T17:14:54.649Z,101724.66
2023-03-02T17:17:21.510Z,101729.78
2023-03-02T17:19:48.235Z,101729.97
2023-03-02T17:22:15.244Z,101728.00
2023-03-02T17:24:41.971Z,101730.22
2023-03-02T17:27:23.804Z,101728.25
2023-03-02T17:29:52.347Z,101737.25
2023-03-02T17:32:19.424Z,101738.56
2023-03-02T17:34:46.904Z,101740.66
2023-03-02T17:37:14.130Z,101735.63
2023-03-02T17:39:40.869Z,101743.84
2023-03-02T17:42:10.185Z,101756.28
2023-03-02T17:44:40.570Z,101748.59
2023-03-02T17:47:10.022Z,101760.47
2023-03-02T17:49:41.246Z,101766.47
2023-03-02T17:52:07.988Z,101778.31
2023-03-02T17:54:35.016Z,101783.53
2023-03-02T17:57:05.117Z,101787.13
2023-03-02T17:59:32.124Z,101779.34
2023-03-02T18:01:58.979Z,101787.19
2023-03-02T18:04:25.807Z,101789.72
2023-03-02T18:06:54.119Z,101786.22
2023-03-02T18:09:20.895Z,101796.31
2023-03-02T18:11:48.576Z,101800.66
2023-03-02T18:14:19.087Z,101794.19
2023-03-02T18:16:46.481Z,101806.06
2023-03-02T18:19:13.804Z,101816.13
2023-03-02T18:21:41.867Z,101806.72
2023-03-02T18:24:09.332Z,101823.25
2023-03-02T18:26:36.231Z,101810.56
2023-03-02T18:29:03.004Z,101825.69
2023-03-02T18:31:31.438Z,101825.72
2023-03-02T18:33:59.048Z,101833.06
2023-03-02T18:36:25.748Z,101829.03
2023-03-02T18:38:53.946Z,101838.81
2023-03-02T18:41:22.107Z,101841.53
2023-03-02T18:43:49.334Z,101841.53
2023-03-02T18:46:24.994Z,101851.56
2023-03-02T18:48:52.879Z,101843.72
2023-03-02T18:51:22.657Z,101845.16
2023-03-02T18:53:51.140Z,101840.56
2023-03-02T18:56:18.618Z,101842.19
2023-03-02T18:58:47.359Z,101844.06
2023-03-02T19:01:14.186Z,101852.72
2023-03-02T19:03:41.880Z,101850.81
2023-03-02T19:06:09.115Z,101845.97
2023-03-02T19:08:36.160Z,101841.50
2023-03-02T19:11:04.719Z,101854.94
2023-03-02T19:13:31.535Z,101853.59
2023-03-02T19:15:58.737Z,101862.31
2023-03-02T19:18:26.125Z,101860.44
2023-03-02T19:20:54.338Z,101854.47
2023-03-02T19:23:21.471Z,101861.25
2023-03-02T19:25:49.801Z,101853.94
2023-03-02T19:28:16.755Z,101861.25
2023-03-02T19:30:43.692Z,101851.53
2023-03-02T19:33:10.893Z,101854.03
2023-03-02T19:35:38.674Z,101865.59
2023-03-02T19:38:06.896Z,101861.09
2023-03-02T19:40:35.026Z,101858.81
2023-03-02T19:43:02.464Z,101864.34
2023-03-02T19:45:32.564Z,101860.16
2023-03-02T19:48:00.699Z,101860.78
2023-03-02T19:50:28.878Z,101863.19
2023-03-02T19:52:57.554Z,101853.81
2023-03-02T19:55:25.361Z,101868.53
2023-03-02T19:57:59.788Z,101856.50
2023-03-02T20:00:31.870Z,101860.44
2023-03-02T20:02:59.964Z,101874.84
2023-03-02T20:05:27.877Z,101864.16
2023-03-02T20:07:54.960Z,101877.00
2023-03-02T20:10:41.516Z,101869.44
2023-03-02T20:13:09.605Z,101863.81
2023-03-02T20:15:39.113Z,101884.75
2023-03-02T20:18:11.822Z,101884.78
2023-03-02T20:20:39.465Z,101883.53
2023-03-02T20:23:06.897Z,101875.84
2023-03-02T20:25:34.213Z,101881.56
2023-03-02T20:28:05.650Z,101888.91
2023-03-02T20:30:40.143Z,101895.34
2023-03-02T20:33:08.543Z,101887.53
2023-03-02T20:35:39.880Z,101893.16
2023-03-02T20:38:10.479Z,101884.63
2023-03-02T20:40:37.436Z,101898.03
2023-03-02T20:43:05.357Z,101900.22
2023-03-02T20:45:33.424Z,101896.47
2023-03-02T20:48:00.619Z,101893.25
2023-03-02T20:50:30.167Z,101903.25
2023-03-02T20:52:57.099Z,101895.09
2023-03-02T20:55:26.216Z,101897.81
2023-03-02T20:57:54.498Z,101898.66
2023-03-02T21:00:24.204Z,101902.13
2023-03-02T21:02:51.078Z,101914.03
2023-03-02T21:05:18.766Z,101914.06
2023-03-02T21:07:45.819Z,101907.84
2023-03-02T21:10:16.887Z,101913.81
2023-03-02T21:12:44.425Z,101916.75
2023-03-02T21:15:12.316Z,101911.31
2023-03-02T21:17:39.142Z,101919.69
2023-03-02T21:20:06.666Z,101920.75
2023-03-02T21:22:33.842Z,101913.97
2023-03-02T21:25:00.630Z,101922.31
2023-03-02T21:27:27.457Z,101911.28
2023-03-02T21:29:54.107Z,101911.50
2023-03-02T21:32:21.131Z,101912.03
2023-03-02T21:34:47.862Z,101907.16
2023-03-02T21:37:14.740Z,101919.91
2023-03-02T21:39:41.518Z,101911.78
2023-03-02T21:42:08.221Z,101919.06
2023-03-02T21:44:34.999Z,101913.91
2023-03-02T21:47:01.734Z,101919.88
2023-03-02T21:49:28.613Z,101920.69
2023-03-02T21:51:55.322Z,101914.50
2023-03-02T21:54:22.113Z,101915.28
2023-03-02T21:56:49.172Z,101925.03
2023-03-02T21:59:15.914Z,101917.50
2023-03-02T22:01:44.252Z,101915.91
2023-03-02T22:04:11.626Z,101919.09
2023-03-02T22:06:38.376Z,101909.97
2023-03-02T22:09:05.213Z,101907.84
2023-03-02T22:11:35.203Z,101915.66
2023-03-02T22:14:10.659Z,101918.31
2023-03-02T22:16:39.447Z,101926.19
2023-03-02T22:19:20.533Z,101922.66
2023-03-02T22:21:48.369Z,101911.88
2023-03-02T22:24:27.218Z,101914.31
2023-03-02T22:26:56.936Z,101914.59
2023-03-02T22:29:41.858Z,101901.13
2023-03-02T22:32:20.335Z,101901.41
2023-03-02T22:34:53.087Z,101909.72
2023-03-02T22:37:25.607Z,101908.09
2023-03-02T22:39:58.460Z,101907.59
2023-03-02T22:42:27.142Z,101915.66
2023-03-02T22:45:15.893Z,101907.06
2023-03-02T22:47:51.530Z,101910.28
2023-03-02T22:50:26.917Z,101917.84
2023-03-02T22:52:59.914Z,101921.34
2023-03-02T22:55:42.961Z,101908.97
2023-03-02T22:58:27.916Z,101910.81
2023-03-02T23:01:04.318Z,101912.19
2023-03-02T23:03:38.545Z,101911.38
2023-03-02T23:06:33.876Z,101915.69
2023-03-02T23:09:07.261Z,101921.38
2023-03-02T23:11:37.732Z,101930.00
2023-03-02T23:14:28.725Z,101933.75
2023-03-02T23:17:01.047Z,101934.56
2023-03-02T23:19:30.132Z,101922.97
2023-03-02T23:21:58.226Z,101927.81
2023-03-02T23:24:25.694Z,101938.34
2023-03-02T23:26:55.782Z,101928.13
2023-03-02T23:29:22.931Z,101914.59
2023-03-02T23:31:50.469Z,101930.53
2023-03-02T23:34:17.422Z,101927.03
2023-03-02T23:36:44.203Z,101930.22
2023-03-02T23:39:11.359Z,101927.53
2023-03-02T23:41:39.046Z,101927.81
2023-03-02T23:44:07.398Z,101928.06
2023-03-02T23:46:34.721Z,101926.16
2023-03-02T23:49:01.501Z,101925.88
2023-03-02T23:51:28.220Z,101936.66
2023-03-02T23:53:55.205Z,101932.88
2023-03-02T23:56:22.253Z,101941.50
2023-03-02T23:58:49.210Z,101935.22
